Time;durP1;ratioP1;P1;durP2;ratioP2;P2;SDS_P1;SDS_P2;PMS_P1;PMS_P2;Temp;Humidity;BMP_temperature;BMP_pressure;BME280_temperature;BME280_humidity;BME280_pressure;Samples;Min_cycle;Max_cycle;Signal;HPM_P1;HPM_P2
2022/12/26 00:01:45;;;;;;;7.47;4.90;;;;;;;;;;5096197;28;20939;-67
2022/12/26 00:04:13;;;;;;;9.60;6.30;;;;;;;;;;5096336;28;20796;-67
2022/12/26 00:06:41;;;;;;;5.00;4.50;;;;;;;;;;5096833;28;20450;-67
2022/12/26 00:09:08;;;;;;;4.93;4.07;;;;;;;;;;5096569;28;20477;-67
2022/12/26 00:11:36;;;;;;;9.43;5.87;;;;;;;;;;5096717;28;20494;-67
2022/12/26 00:14:05;;;;;;;9.03;6.30;;;;;;;;;;5096114;28;20807;-67
2022/12/26 00:16:32;;;;;;;6.93;4.87;;;;;;;;;;5096617;28;20453;-67
2022/12/26 00:18:59;;;;;;;5.30;4.20;;;;;;;;;;5096539;28;20493;-67
2022/12/26 00:21:27;;;;;;;4.97;3.47;;;;;;;;;;5096538;28;20951;-67
2022/12/26 00:23:56;;;;;;;4.70;3.87;;;;;;;;;;5095790;28;20553;-67
2022/12/26 00:26:24;;;;;;;5.13;3.90;;;;;;;;;;5096529;28;20450;-67
2022/12/26 00:28:52;;;;;;;5.10;3.37;;;;;;;;;;5096185;28;20477;-67
2022/12/26 00:31:20;;;;;;;5.63;3.70;;;;;;;;;;5096500;28;21074;-67
2022/12/26 00:33:48;;;;;;;4.60;3.70;;;;;;;;;;5095485;28;20463;-67
2022/12/26 00:36:15;;;;;;;5.10;3.10;;;;;;;;;;5096187;28;20465;-67
2022/12/26 00:38:43;;;;;;;4.20;3.40;;;;;;;;;;5096065;28;20835;-67
2022/12/26 00:41:13;;;;;;;4.20;3.30;;;;;;;;;;5096344;28;20447;-67
2022/12/26 00:43:40;;;;;;;4.77;3.07;;;;;;;;;;5095269;28;20831;-67
2022/12/26 00:46:07;;;;;;;4.50;3.97;;;;;;;;;;5095994;28;20474;-67
2022/12/26 00:48:35;;;;;;;4.27;3.40;;;;;;;;;;5095994;28;20474;-67
2022/12/26 00:51:02;;;;;;;7.30;5.00;;;;;;;;;;5095812;28;20494;-67
2022/12/26 00:53:29;;;;;;;3.80;3.47;;;;;;;;;;5095378;28;20446;-68
2022/12/26 00:55:56;;;;;;;6.10;3.97;;;;;;;;;;5095497;28;20451;-67
2022/12/26 00:58:25;;;;;;;7.20;4.57;;;;;;;;;;5095871;28;20470;-67
2022/12/26 01:00:52;;;;;;;5.53;4.20;;;;;;;;;;5095782;28;20446;-67
2022/12/26 01:03:19;;;;;;;9.03;4.40;;;;;;;;;;5095756;28;20450;-67
2022/12/26 01:05:47;;;;;;;3.83;3.50;;;;;;;;;;5095210;28;20447;-67
2022/12/26 01:08:14;;;;;;;6.27;4.37;;;;;;;;;;5095633;28;20824;-67
2022/12/26 01:10:42;;;;;;;4.33;3.37;;;;;;;;;;5095542;28;20485;-67
2022/12/26 01:13:09;;;;;;;4.77;3.37;;;;;;;;;;5094998;28;20448;-67
2022/12/26 01:15:38;;;;;;;4.40;3.40;;;;;;;;;;5094889;28;20955;-67
2022/12/26 01:18:05;;;;;;;5.03;3.60;;;;;;;;;;5095304;28;20478;-67
2022/12/26 01:20:32;;;;;;;4.10;3.50;;;;;;;;;;5095477;28;20447;-67
2022/12/26 01:22:59;;;;;;;5.57;3.93;;;;;;;;;;5095274;28;20816;-67
2022/12/26 01:25:26;;;;;;;8.13;5.13;;;;;;;;;;5094708;28;20477;-67
2022/12/26 01:27:53;;;;;;;6.00;3.97;;;;;;;;;;5095133;28;20470;-67
2022/12/26 01:30:20;;;;;;;7.37;4.80;;;;;;;;;;5095215;28;20486;-67
2022/12/26 01:32:49;;;;;;;7.47;3.53;;;;;;;;;;5093299;28;20450;-67
2022/12/26 01:35:16;;;;;;;3.80;3.33;;;;;;;;;;5094550;28;20443;-67
2022/12/26 01:37:43;;;;;;;4.13;3.60;;;;;;;;;;5092700;28;20467;-67
2022/12/26 01:40:12;;;;;;;3.90;2.77;;;;;;;;;;5095140;28;20835;-67
2022/12/26 01:42:40;;;;;;;7.80;5.10;;;;;;;;;;5094936;28;20451;-67
2022/12/26 01:45:08;;;;;;;5.63;3.60;;;;;;;;;;5094364;28;20515;-67
2022/12/26 01:47:40;;;;;;;4.33;3.53;;;;;;;;;;5094791;28;20842;-67
2022/12/26 01:50:13;;;;;;;3.70;2.80;;;;;;;;;;5094574;28;21079;-67
2022/12/26 01:52:44;;;;;;;4.20;3.80;;;;;;;;;;5094800;28;20454;-67
2022/12/26 01:55:12;;;;;;;5.17;3.40;;;;;;;;;;5094484;28;20446;-67
2022/12/26 01:57:41;;;;;;;3.10;2.80;;;;;;;;;;5094633;28;20880;-67
2022/12/26 02:00:09;;;;;;;7.60;3.70;;;;;;;;;;5094524;28;20453;-67
2022/12/26 02:05:32;;;;;;;3.77;2.73;;;;;;;;;;5094745;28;20450;-67
2022/12/26 02:05:33;;;;;;;4.80;3.50;;;;;;;;;;5093920;28;20435;-67
2022/12/26 02:08:03;;;;;;;3.03;2.73;;;;;;;;;;5094400;28;20466;-67
2022/12/26 02:10:32;;;;;;;4.57;2.87;;;;;;;;;;5094389;28;20482;-67
2022/12/26 02:12:59;;;;;;;3.53;2.43;;;;;;;;;;5094227;28;20466;-67
2022/12/26 02:15:26;;;;;;;4.30;2.67;;;;;;;;;;5093738;28;20447;-67
2022/12/26 02:17:53;;;;;;;3.17;2.87;;;;;;;;;;5094193;28;20463;-67
2022/12/26 02:20:21;;;;;;;2.30;2.10;;;;;;;;;;5094166;28;20446;-67
2022/12/26 02:23:15;;;;;;;3.10;2.80;;;;;;;;;;5094040;28;20462;-67
2022/12/26 02:26:00;;;;;;;4.00;2.30;;;;;;;;;;5056921;28;20455;-67
2022/12/26 02:28:38;;;;;;;3.50;3.03;;;;;;;;;;5093921;28;20473;-67
2022/12/26 02:31:07;;;;;;;3.20;2.60;;;;;;;;;;5094052;28;20486;-67
2022/12/26 02:33:41;;;;;;;2.90;2.47;;;;;;;;;;5093466;28;20457;-67
2022/12/26 02:36:17;;;;;;;3.30;2.80;;;;;;;;;;5093719;28;20453;-67
2022/12/26 02:38:48;;;;;;;3.90;3.40;;;;;;;;;;5093829;28;20477;-67
2022/12/26 02:41:21;;;;;;;3.10;2.33;;;;;;;;;;5093894;28;20446;-67
2022/12/26 02:43:54;;;;;;;4.10;3.17;;;;;;;;;;5093311;28;20467;-67
2022/12/26 02:49:15;;;;;;;3.93;2.60;;;;;;;;;;5093883;28;20447;-67
2022/12/26 03:14:19;;;;;;;3.10;2.43;;;;;;;;;;5092710;28;20464;-67
2022/12/26 03:19:56;;;;;;;3.63;2.30;;;;;;;;;;5093172;28;20442;-67
2022/12/26 03:22:30;;;;;;;3.03;2.70;;;;;;;;;;5093216;28;20455;-67
2022/12/26 03:27:42;;;;;;;3.10;2.30;;;;;;;;;;5093038;28;20438;-67
2022/12/26 03:32:56;;;;;;;3.80;2.57;;;;;;;;;;5093039;28;20403;-67
2022/12/26 03:35:25;;;;;;;4.00;2.03;;;;;;;;;;5091977;28;20461;-67
2022/12/26 03:37:56;;;;;;;3.07;2.03;;;;;;;;;;5092815;28;20474;-67
2022/12/26 04:20:07;;;;;;;3.70;2.13;;;;;;;;;;5092503;28;20518;-67
2022/12/26 04:45:03;;;;;;;2.97;1.70;;;;;;;;;;5091621;28;20442;-67
2022/12/26 04:47:31;;;;;;;5.00;2.40;;;;;;;;;;5093756;28;20477;-67
2022/12/26 04:50:13;;;;;;;2.53;2.10;;;;;;;;;;5096080;28;20826;-67
2022/12/26 04:52:57;;;;;;;3.23;2.47;;;;;;;;;;5096117;28;20446;-67
2022/12/26 04:55:25;;;;;;;2.50;1.80;;;;;;;;;;5095210;28;20450;-67
2022/12/26 04:57:53;;;;;;;4.00;2.80;;;;;;;;;;5095751;28;20495;-67
2022/12/26 05:00:22;;;;;;;6.13;3.10;;;;;;;;;;5096133;28;20442;-67
2022/12/26 05:11:11;;;;;;;2.13;1.93;;;;;;;;;;5095895;28;20535;-67
2022/12/26 05:13:39;;;;;;;3.27;2.70;;;;;;;;;;5095102;28;20454;-67
2022/12/26 05:29:57;;;;;;;3.27;2.20;;;;;;;;;;5095239;28;20429;-67
2022/12/26 05:35:09;;;;;;;5.47;4.57;;;;;;;;;;5094567;28;20430;-67
2022/12/26 05:37:36;;;;;;;2.83;2.63;;;;;;;;;;5092707;28;20498;-67
2022/12/26 05:40:04;;;;;;;3.93;2.40;;;;;;;;;;5095054;28;20455;-67
2022/12/26 05:42:31;;;;;;;2.80;2.17;;;;;;;;;;5095212;28;20447;-67
2022/12/26 05:44:59;;;;;;;2.47;1.87;;;;;;;;;;5094310;28;20867;-67
2022/12/26 05:47:27;;;;;;;2.77;2.27;;;;;;;;;;5094849;28;20470;-67
2022/12/26 05:49:54;;;;;;;5.67;3.73;;;;;;;;;;5094702;28;20458;-67
2022/12/26 05:52:21;;;;;;;2.93;2.43;;;;;;;;;;5094869;28;20486;-67
2022/12/26 05:54:48;;;;;;;3.67;3.37;;;;;;;;;;5094231;28;20457;-67
2022/12/26 05:57:15;;;;;;;6.83;5.00;;;;;;;;;;5094761;28;20458;-67
2022/12/26 05:59:42;;;;;;;4.53;3.20;;;;;;;;;;5094476;28;20971;-67
2022/12/26 06:02:11;;;;;;;2.90;2.20;;;;;;;;;;5094766;28;20796;-67
2022/12/26 06:04:38;;;;;;;4.63;3.07;;;;;;;;;;5094130;28;20457;-67
2022/12/26 06:07:05;;;;;;;2.67;2.30;;;;;;;;;;5094597;28;20954;-67
2022/12/26 06:09:32;;;;;;;4.53;2.43;;;;;;;;;;5094347;28;20450;-67
2022/12/26 06:11:59;;;;;;;3.60;2.63;;;;;;;;;;5094611;28;21028;-67
2022/12/26 06:14:26;;;;;;;5.07;3.60;;;;;;;;;;5093860;28;20450;-67
2022/12/26 06:16:53;;;;;;;11.03;7.83;;;;;;;;;;5094248;28;20454;-67
2022/12/26 06:19:22;;;;;;;9.17;5.83;;;;;;;;;;5094231;28;20471;-67
2022/12/26 06:21:49;;;;;;;6.23;4.20;;;;;;;;;;5094547;28;20939;-67
2022/12/26 06:24:16;;;;;;;6.33;3.90;;;;;;;;;;5093569;28;20451;-67
2022/12/26 06:26:43;;;;;;;5.00;4.20;;;;;;;;;;5094069;28;20457;-67
2022/12/26 06:29:10;;;;;;;7.00;5.33;;;;;;;;;;5094092;28;20471;-67
2022/12/26 06:31:38;;;;;;;11.27;8.13;;;;;;;;;;5094044;28;20485;-67
2022/12/26 06:34:05;;;;;;;9.20;5.57;;;;;;;;;;5093388;28;20462;-67
2022/12/26 06:36:33;;;;;;;5.40;4.33;;;;;;;;;;5093947;28;20457;-67
2022/12/26 06:39:00;;;;;;;5.67;4.30;;;;;;;;;;5093884;28;21006;-67
2022/12/26 06:41:28;;;;;;;33.23;16.67;;;;;;;;;;5094032;28;20475;-66
2022/12/26 06:43:55;;;;;;;32.40;19.10;;;;;;;;;;5092172;28;20482;-67
2022/12/26 06:46:24;;;;;;;6.43;3.60;;;;;;;;;;5090807;28;20447;-67
2022/12/26 06:48:51;;;;;;;4.87;3.13;;;;;;;;;;5092506;28;20490;-67
2022/12/26 06:51:19;;;;;;;4.77;3.80;;;;;;;;;;5093340;28;20881;-67
2022/12/26 06:53:47;;;;;;;5.57;4.60;;;;;;;;;;5092615;28;20518;-67
2022/12/26 06:56:16;;;;;;;8.73;5.60;;;;;;;;;;5093340;28;20446;-67
2022/12/26 06:58:43;;;;;;;9.00;6.87;;;;;;;;;;5093105;28;20995;-67
2022/12/26 07:01:11;;;;;;;8.73;6.57;;;;;;;;;;5093250;28;20457;-66
2022/12/26 07:03:38;;;;;;;6.00;4.00;;;;;;;;;;5092888;28;20536;-67
2022/12/26 07:06:06;;;;;;;6.83;6.13;;;;;;;;;;5093276;28;20891;-66
2022/12/26 07:08:34;;;;;;;7.90;6.80;;;;;;;;;;5092852;28;20826;-67
2022/12/26 07:11:02;;;;;;;9.10;5.93;;;;;;;;;;5092269;28;20860;-66
2022/12/26 07:13:29;;;;;;;5.90;4.27;;;;;;;;;;5092792;28;20451;-67
2022/12/26 07:15:59;;;;;;;7.87;6.40;;;;;;;;;;5092941;28;20959;-66
2022/12/26 07:18:26;;;;;;;10.73;6.70;;;;;;;;;;5092599;28;20474;-66
2022/12/26 07:20:53;;;;;;;8.53;7.67;;;;;;;;;;5092888;28;20500;-67
2022/12/26 07:23:20;;;;;;;11.53;8.77;;;;;;;;;;5092866;28;20442;-67
2022/12/26 07:25:48;;;;;;;6.03;4.67;;;;;;;;;;5092428;28;20458;-67
2022/12/26 07:28:16;;;;;;;12.43;7.00;;;;;;;;;;5092437;28;20894;-67
2022/12/26 07:30:46;;;;;;;6.67;5.53;;;;;;;;;;5092750;28;20457;-67
2022/12/26 07:33:13;;;;;;;7.70;6.87;;;;;;;;;;5093116;28;20932;-67
2022/12/26 07:35:40;;;;;;;10.50;9.13;;;;;;;;;;5092534;28;20473;-67
2022/12/26 07:38:08;;;;;;;28.17;15.53;;;;;;;;;;5092886;28;20466;-67
2022/12/26 07:40:35;;;;;;;21.07;13.10;;;;;;;;;;5092965;28;20454;-67
2022/12/26 07:43:02;;;;;;;9.73;7.63;;;;;;;;;;5093105;28;20951;-67
2022/12/26 07:45:30;;;;;;;24.40;14.60;;;;;;;;;;5092519;28;20451;-66
2022/12/26 07:47:58;;;;;;;55.23;27.57;;;;;;;;;;5079762;28;20486;-67
2022/12/26 07:50:26;;;;;;;37.30;20.67;;;;;;;;;;5089167;28;20454;-67
2022/12/26 07:52:53;;;;;;;35.10;19.00;;;;;;;;;;5090640;28;20493;-67
2022/12/26 07:55:20;;;;;;;48.97;22.57;;;;;;;;;;5090266;28;20453;-66
2022/12/26 07:57:50;;;;;;;35.93;17.70;;;;;;;;;;5090776;28;20471;-67
2022/12/26 08:00:18;;;;;;;70.27;31.80;;;;;;;;;;5091119;28;20459;-66
2022/12/26 08:02:48;;;;;;;52.27;26.03;;;;;;;;;;5090285;28;20447;-67
2022/12/26 08:05:15;;;;;;;26.83;17.07;;;;;;;;;;5090816;28;20478;-67
2022/12/26 08:07:42;;;;;;;23.27;15.80;;;;;;;;;;5091509;28;20474;-68
2022/12/26 08:10:09;;;;;;;15.70;10.00;;;;;;;;;;5090604;28;20446;-67
2022/12/26 08:12:36;;;;;;;8.40;5.70;;;;;;;;;;5090905;28;20482;-67
2022/12/26 08:15:04;;;;;;;10.70;7.13;;;;;;;;;;5090570;28;20446;-67
2022/12/26 08:17:31;;;;;;;5.10;4.13;;;;;;;;;;5090572;28;20485;-67
2022/12/26 08:20:00;;;;;;;3.10;2.77;;;;;;;;;;5090616;28;20461;-67
2022/12/26 08:22:27;;;;;;;3.43;3.13;;;;;;;;;;5093333;28;20451;-67
2022/12/26 08:24:55;;;;;;;4.00;3.10;;;;;;;;;;5094068;28;20458;-68
2022/12/26 08:27:22;;;;;;;3.47;3.17;;;;;;;;;;5094896;28;20968;-67
2022/12/26 08:29:49;;;;;;;3.17;2.80;;;;;;;;;;5094694;28;20454;-67
2022/12/26 08:32:16;;;;;;;5.70;4.17;;;;;;;;;;5092709;28;20497;-67
2022/12/26 08:34:43;;;;;;;4.90;4.30;;;;;;;;;;5094409;28;20492;-67
2022/12/26 08:37:12;;;;;;;5.20;3.13;;;;;;;;;;5092879;28;20948;-67
2022/12/26 08:39:39;;;;;;;2.90;2.47;;;;;;;;;;5093891;28;20455;-67
2022/12/26 08:42:06;;;;;;;3.30;2.67;;;;;;;;;;5094975;28;20465;-67
2022/12/26 08:44:33;;;;;;;4.93;4.40;;;;;;;;;;5093770;28;20466;-67
2022/12/26 08:47:00;;;;;;;3.90;2.33;;;;;;;;;;5093540;28;20467;-67
2022/12/26 08:49:27;;;;;;;4.03;2.57;;;;;;;;;;5094284;28;20985;-67
2022/12/26 08:51:54;;;;;;;3.97;3.13;;;;;;;;;;5094152;28;20478;-67
2022/12/26 08:54:23;;;;;;;3.87;2.90;;;;;;;;;;5093606;28;20453;-68
2022/12/26 08:56:50;;;;;;;3.03;2.73;;;;;;;;;;5094572;28;20453;-67
2022/12/26 08:59:17;;;;;;;3.70;2.50;;;;;;;;;;5093993;28;20474;-68
2022/12/26 09:01:44;;;;;;;2.50;2.30;;;;;;;;;;5093712;28;20567;-67
2022/12/26 09:04:11;;;;;;;4.83;3.43;;;;;;;;;;5094011;28;20455;-67
2022/12/26 09:06:40;;;;;;;3.30;2.90;;;;;;;;;;5093122;28;20458;-68
2022/12/26 09:09:10;;;;;;;3.40;3.10;;;;;;;;;;5094016;28;20478;-68
2022/12/26 09:11:38;;;;;;;4.90;3.13;;;;;;;;;;5094371;28;21077;-68
2022/12/26 09:14:06;;;;;;;2.57;2.37;;;;;;;;;;5093609;28;20470;-67
2022/12/26 09:16:35;;;;;;;5.40;4.40;;;;;;;;;;5095567;28;20447;-68
2022/12/26 09:19:03;;;;;;;12.50;8.30;;;;;;;;;;5095324;28;20475;-68
2022/12/26 09:21:30;;;;;;;5.03;2.37;;;;;;;;;;5095436;28;20454;-68
2022/12/26 09:23:57;;;;;;;2.37;2.10;;;;;;;;;;5094869;28;20458;-68
2022/12/26 09:26:25;;;;;;;4.10;2.30;;;;;;;;;;5095427;28;20812;-68
2022/12/26 09:28:54;;;;;;;4.63;2.50;;;;;;;;;;5095231;28;20478;-69
2022/12/26 09:31:22;;;;;;;7.00;4.43;;;;;;;;;;5095398;28;20940;-70
2022/12/26 09:33:49;;;;;;;2.97;1.87;;;;;;;;;;5094123;28;20448;-70
2022/12/26 09:36:17;;;;;;;4.20;3.67;;;;;;;;;;5095452;28;20443;-70
2022/12/26 09:38:44;;;;;;;10.67;8.57;;;;;;;;;;5095104;28;20474;-70
2022/12/26 09:41:23;;;;;;;5.40;4.10;;;;;;;;;;5095026;28;20461;-70
2022/12/26 09:43:54;;;;;;;3.53;3.13;;;;;;;;;;5094480;28;20466;-70
2022/12/26 09:46:27;;;;;;;3.03;2.50;;;;;;;;;;5095066;28;20454;-70
2022/12/26 09:48:58;;;;;;;2.97;2.67;;;;;;;;;;5085107;28;20474;-70
2022/12/26 09:51:26;;;;;;;5.03;4.53;;;;;;;;;;5091325;28;20502;-70
2022/12/26 09:53:55;;;;;;;7.00;5.77;;;;;;;;;;5089953;28;20499;-70
2022/12/26 09:56:23;;;;;;;4.73;3.23;;;;;;;;;;5093082;28;20439;-70
2022/12/26 09:58:52;;;;;;;4.03;3.00;;;;;;;;;;5093287;28;20478;-70
2022/12/26 10:01:21;;;;;;;4.97;4.07;;;;;;;;;;5092523;28;20451;-70
2022/12/26 10:03:51;;;;;;;4.00;2.83;;;;;;;;;;5092660;28;20469;-70
2022/12/26 10:06:20;;;;;;;3.40;3.10;;;;;;;;;;5092889;28;20512;-70
2022/12/26 10:08:54;;;;;;;3.57;2.80;;;;;;;;;;5094079;28;20991;-70
2022/12/26 10:11:24;;;;;;;4.07;3.03;;;;;;;;;;5094321;28;20453;-70
2022/12/26 10:13:55;;;;;;;3.53;2.90;;;;;;;;;;5093684;28;20526;-70
2022/12/26 10:16:27;;;;;;;6.50;5.10;;;;;;;;;;5094303;28;20939;-70
2022/12/26 10:19:00;;;;;;;4.37;3.87;;;;;;;;;;5094100;28;20466;-70
2022/12/26 10:21:31;;;;;;;4.53;3.63;;;;;;;;;;5094418;28;20446;-70
2022/12/26 10:24:00;;;;;;;8.90;4.10;;;;;;;;;;5093785;28;20482;-70
2022/12/26 10:26:30;;;;;;;4.33;3.50;;;;;;;;;;5094190;28;20473;-70
2022/12/26 10:29:00;;;;;;;6.00;4.00;;;;;;;;;;5093922;28;20473;-70
2022/12/26 10:31:30;;;;;;;5.73;3.77;;;;;;;;;;5094092;28;20447;-70
2022/12/26 10:34:00;;;;;;;5.33;3.50;;;;;;;;;;5093568;28;20491;-70
2022/12/26 10:36:31;;;;;;;4.57;3.43;;;;;;;;;;5094129;28;20450;-70
2022/12/26 10:39:00;;;;;;;10.00;4.00;;;;;;;;;;5093843;28;20468;-70
2022/12/26 10:41:28;;;;;;;4.60;3.47;;;;;;;;;;5093887;28;20555;-70
2022/12/26 10:43:55;;;;;;;3.50;3.07;;;;;;;;;;5092952;28;20454;-70
2022/12/26 10:46:39;;;;;;;4.47;3.63;;;;;;;;;;5093344;28;20931;-69
2022/12/26 10:49:08;;;;;;;7.53;4.83;;;;;;;;;;5093917;28;20956;-69
2022/12/26 10:51:36;;;;;;;5.30;3.87;;;;;;;;;;5090053;28;20446;-71
2022/12/26 10:54:04;;;;;;;5.30;3.30;;;;;;;;;;5088165;28;20522;-70
2022/12/26 10:56:32;;;;;;;4.70;3.00;;;;;;;;;;5091889;28;20446;-70
2022/12/26 10:59:00;;;;;;;5.60;3.10;;;;;;;;;;5092227;28;20473;-70
2022/12/26 11:01:35;;;;;;;4.40;3.37;;;;;;;;;;5091330;28;20462;-70
2022/12/26 11:04:03;;;;;;;4.53;3.90;;;;;;;;;;5091120;28;20461;-70
2022/12/26 11:06:34;;;;;;;9.27;6.50;;;;;;;;;;5091576;28;20450;-69
2022/12/26 11:09:01;;;;;;;22.03;11.83;;;;;;;;;;5091134;28;20563;-70
2022/12/26 11:11:44;;;;;;;11.70;8.73;;;;;;;;;;5092957;28;20480;-70
2022/12/26 11:14:26;;;;;;;6.50;4.57;;;;;;;;;;5092482;28;20486;-70
2022/12/26 11:16:53;;;;;;;6.43;4.10;;;;;;;;;;5093081;28;20446;-70
2022/12/26 11:19:27;;;;;;;6.80;3.63;;;;;;;;;;5093102;28;20470;-70
2022/12/26 11:22:10;;;;;;;4.83;3.53;;;;;;;;;;5093138;28;20449;-70
2022/12/26 11:24:37;;;;;;;7.77;4.03;;;;;;;;;;5092628;28;20447;-70
2022/12/26 11:27:17;;;;;;;6.33;3.73;;;;;;;;;;5092945;28;20445;-70
2022/12/26 11:29:44;;;;;;;5.80;4.40;;;;;;;;;;5093182;28;20449;-70
2022/12/26 11:32:15;;;;;;;5.00;3.73;;;;;;;;;;5089786;28;20940;-70
2022/12/26 11:34:45;;;;;;;3.20;2.37;;;;;;;;;;5089276;28;20828;-70
2022/12/26 11:37:24;;;;;;;3.23;2.97;;;;;;;;;;5072635;28;20878;-70
2022/12/26 11:39:52;;;;;;;3.60;3.30;;;;;;;;;;5079600;28;20455;-70
2022/12/26 11:42:20;;;;;;;3.83;3.50;;;;;;;;;;5092911;28;20450;-70
2022/12/26 11:44:51;;;;;;;5.20;4.80;;;;;;;;;;5092152;28;20466;-70
2022/12/26 11:47:20;;;;;;;4.90;4.50;;;;;;;;;;5093126;28;20964;-70
2022/12/26 11:49:50;;;;;;;2.70;2.50;;;;;;;;;;5084715;28;20459;-70
2022/12/26 11:52:38;;;;;;;2.33;2.10;;;;;;;;;;5092392;28;20844;-70
2022/12/26 11:55:20;;;;;;;3.50;1.97;;;;;;;;;;5092235;28;20936;-70
2022/12/26 11:57:56;;;;;;;2.93;2.60;;;;;;;;;;5091992;28;20470;-69
2022/12/26 12:00:23;;;;;;;5.80;2.70;;;;;;;;;;5092596;28;20446;-69
2022/12/26 12:02:50;;;;;;;2.90;2.40;;;;;;;;;;5091684;28;20550;-69
2022/12/26 12:05:25;;;;;;;4.63;2.70;;;;;;;;;;5091751;28;20821;-70
2022/12/26 12:08:16;;;;;;;3.33;2.30;;;;;;;;;;5092755;28;20470;-70
2022/12/26 12:10:49;;;;;;;3.37;2.40;;;;;;;;;;5063077;28;20455;-68
2022/12/26 12:13:22;;;;;;;3.40;2.73;;;;;;;;;;5069975;28;20487;-68
2022/12/26 12:15:53;;;;;;;4.27;2.73;;;;;;;;;;5069569;28;20459;-68
2022/12/26 12:18:23;;;;;;;4.17;3.20;;;;;;;;;;5070779;28;20857;-68
2022/12/26 12:20:57;;;;;;;6.80;3.87;;;;;;;;;;5071135;28;20448;-68
2022/12/26 12:23:33;;;;;;;6.40;4.03;;;;;;;;;;5071332;28;20475;-68
2022/12/26 12:26:06;;;;;;;4.73;3.40;;;;;;;;;;5071530;28;20455;-68
2022/12/26 12:28:45;;;;;;;4.50;3.03;;;;;;;;;;5071924;28;20483;-68
2022/12/26 12:31:18;;;;;;;3.13;2.60;;;;;;;;;;5072328;28;20455;-68
2022/12/26 12:33:50;;;;;;;3.53;2.37;;;;;;;;;;5071636;28;20494;-68
2022/12/26 12:36:18;;;;;;;3.80;2.70;;;;;;;;;;5072284;28;20832;-68
2022/12/26 12:39:01;;;;;;;3.03;2.73;;;;;;;;;;5072028;28;20844;-68
2022/12/26 12:41:35;;;;;;;2.93;2.47;;;;;;;;;;5072307;28;20955;-68
2022/12/26 12:44:05;;;;;;;3.37;2.50;;;;;;;;;;5071665;28;20489;-68
2022/12/26 12:46:37;;;;;;;3.30;2.70;;;;;;;;;;5071988;28;20455;-68
2022/12/26 12:49:13;;;;;;;3.63;2.20;;;;;;;;;;5071983;28;20486;-68
2022/12/26 12:51:44;;;;;;;4.50;3.30;;;;;;;;;;5071803;28;20451;-67
2022/12/26 12:54:29;;;;;;;6.40;4.43;;;;;;;;;;5071198;28;20492;-68
2022/12/26 12:57:02;;;;;;;6.87;4.40;;;;;;;;;;5071822;28;20466;-67
2022/12/26 12:59:32;;;;;;;7.60;4.20;;;;;;;;;;5072172;28;20458;-67
2022/12/26 13:02:00;;;;;;;3.70;2.97;;;;;;;;;;5071993;28;20458;-68
2022/12/26 13:04:30;;;;;;;6.77;4.87;;;;;;;;;;5071604;28;20819;-68
2022/12/26 13:06:59;;;;;;;12.83;7.33;;;;;;;;;;5071928;28;20933;-67
2022/12/26 13:09:28;;;;;;;8.77;6.30;;;;;;;;;;5074379;28;20459;-67
2022/12/26 13:11:58;;;;;;;7.57;6.10;;;;;;;;;;5075375;28;20451;-68
2022/12/26 13:14:27;;;;;;;5.30;3.60;;;;;;;;;;5074811;28;20487;-68
2022/12/26 13:16:55;;;;;;;5.50;3.90;;;;;;;;;;5074540;28;20448;-68
2022/12/26 13:19:24;;;;;;;5.90;4.03;;;;;;;;;;5075040;28;20508;-68
2022/12/26 13:21:52;;;;;;;4.20;3.47;;;;;;;;;;5075149;28;20455;-68
2022/12/26 13:24:23;;;;;;;6.77;4.00;;;;;;;;;;5074746;28;20454;-68
2022/12/26 13:26:54;;;;;;;4.03;3.13;;;;;;;;;;5075403;28;20459;-68
2022/12/26 13:29:29;;;;;;;5.40;4.13;;;;;;;;;;5074993;28;20519;-68
2022/12/26 13:31:58;;;;;;;7.33;5.00;;;;;;;;;;5074915;28;20955;-68
2022/12/26 13:34:25;;;;;;;5.73;4.60;;;;;;;;;;5074371;28;20859;-68
2022/12/26 13:36:54;;;;;;;5.10;4.30;;;;;;;;;;5074847;28;20451;-68
2022/12/26 13:39:36;;;;;;;10.17;5.57;;;;;;;;;;5074881;28;21051;-68
2022/12/26 13:44:52;;;;;;;6.10;4.50;;;;;;;;;;5074187;28;20449;-68
2022/12/26 13:47:32;;;;;;;10.20;4.80;;;;;;;;;;5074483;28;20447;-68
2022/12/26 13:50:20;;;;;;;3.90;3.50;;;;;;;;;;5074711;28;20476;-68
2022/12/26 13:52:47;;;;;;;4.13;3.17;;;;;;;;;;5074488;28;20447;-68
2022/12/26 13:55:35;;;;;;;5.33;3.23;;;;;;;;;;5074198;28;20805;-68
2022/12/26 13:58:14;;;;;;;13.87;6.37;;;;;;;;;;5071327;28;20479;-68
2022/12/26 14:00:44;;;;;;;11.87;7.27;;;;;;;;;;5074481;28;20518;-68
2022/12/26 14:03:29;;;;;;;8.57;5.70;;;;;;;;;;5074084;28;20440;-68
2022/12/26 14:06:08;;;;;;;5.63;3.40;;;;;;;;;;5074107;28;20460;-68
2022/12/26 14:08:38;;;;;;;8.53;4.87;;;;;;;;;;5074429;28;20972;-68
2022/12/26 14:11:12;;;;;;;7.77;4.37;;;;;;;;;;5074364;28;20933;-68
2022/12/26 14:14:03;;;;;;;10.63;6.13;;;;;;;;;;5073759;28;20491;-68
2022/12/26 14:16:36;;;;;;;8.10;5.07;;;;;;;;;;5063989;28;20459;-68
2022/12/26 14:19:11;;;;;;;94.70;48.33;;;;;;;;;;5073950;28;20463;-68
2022/12/26 14:21:44;;;;;;;14.60;8.60;;;;;;;;;;5074217;28;20444;-68
2022/12/26 14:24:19;;;;;;;14.50;7.67;;;;;;;;;;5073540;28;20443;-68
2022/12/26 14:26:49;;;;;;;10.33;7.00;;;;;;;;;;5073810;28;20455;-68
2022/12/26 14:29:21;;;;;;;15.03;8.03;;;;;;;;;;5074088;28;20455;-68
2022/12/26 14:31:56;;;;;;;8.83;4.77;;;;;;;;;;5073817;28;20504;-68
2022/12/26 14:34:27;;;;;;;7.50;4.43;;;;;;;;;;5073288;28;20487;-68
2022/12/26 14:36:59;;;;;;;7.83;4.47;;;;;;;;;;5073511;28;20459;-68
2022/12/26 14:39:37;;;;;;;7.20;3.93;;;;;;;;;;5073767;28;20452;-69
2022/12/26 14:45:03;;;;;;;3.83;3.03;;;;;;;;;;5073033;28;20447;-68
2022/12/26 14:47:41;;;;;;;11.67;5.03;;;;;;;;;;5073403;28;20503;-68
2022/12/26 14:50:26;;;;;;;5.23;3.93;;;;;;;;;;5073412;28;20460;-68
2022/12/26 14:52:53;;;;;;;8.70;4.17;;;;;;;;;;5084251;28;20901;-68
2022/12/26 14:55:42;;;;;;;4.33;3.80;;;;;;;;;;5091070;28;20494;-68
2022/12/26 14:58:32;;;;;;;7.73;5.07;;;;;;;;;;5087045;28;20506;-68
2022/12/26 15:01:16;;;;;;;6.10;5.13;;;;;;;;;;5091943;28;20454;-69
2022/12/26 15:03:50;;;;;;;7.37;6.37;;;;;;;;;;5091362;28;20464;-68
2022/12/26 15:06:28;;;;;;;10.33;6.10;;;;;;;;;;5091444;28;20450;-68
2022/12/26 15:09:04;;;;;;;8.10;7.03;;;;;;;;;;5091595;28;20904;-68
2022/12/26 15:11:57;;;;;;;9.20;6.90;;;;;;;;;;5091875;28;20454;-68
2022/12/26 15:14:38;;;;;;;12.47;8.20;;;;;;;;;;5090690;28;20493;-68
2022/12/26 15:17:09;;;;;;;12.10;6.63;;;;;;;;;;5091645;28;20461;-68
2022/12/26 15:20:00;;;;;;;9.00;5.23;;;;;;;;;;5091581;28;20454;-68
2022/12/26 15:22:45;;;;;;;10.73;5.70;;;;;;;;;;5091338;28;20451;-68
2022/12/26 15:25:39;;;;;;;7.53;4.83;;;;;;;;;;5091294;28;20453;-68
2022/12/26 15:28:27;;;;;;;16.03;4.63;;;;;;;;;;5055077;28;20485;-68
2022/12/26 15:31:02;;;;;;;5.37;3.80;;;;;;;;;;5091303;28;20457;-68
2022/12/26 15:33:31;;;;;;;3.60;2.90;;;;;;;;;;5091067;28;20450;-68
2022/12/26 15:36:04;;;;;;;3.80;2.77;;;;;;;;;;5091057;28;20940;-68
2022/12/26 15:38:35;;;;;;;3.30;3.00;;;;;;;;;;5091324;28;20481;-68
2022/12/26 15:41:09;;;;;;;7.22;4.80;;;;;;;;;;5091271;28;20855;-69
2022/12/26 15:43:43;;;;;;;6.20;4.40;;;;;;;;;;5090769;28;20682;-69
2022/12/26 15:46:16;;;;;;;6.73;5.50;;;;;;;;;;5092561;28;20454;-69
2022/12/26 15:48:50;;;;;;;6.80;5.97;;;;;;;;;;5092650;28;20477;-69
2022/12/26 15:51:21;;;;;;;10.40;6.60;;;;;;;;;;5092961;28;20446;-69
2022/12/26 15:53:58;;;;;;;10.23;7.33;;;;;;;;;;5092132;28;20485;-68
2022/12/26 15:56:34;;;;;;;9.97;6.80;;;;;;;;;;5092771;28;20473;-68
2022/12/26 15:59:10;;;;;;;13.90;9.83;;;;;;;;;;5092697;28;20465;-67
2022/12/26 16:01:41;;;;;;;10.13;7.53;;;;;;;;;;5092811;28;20445;-68
2022/12/26 16:04:12;;;;;;;8.33;5.37;;;;;;;;;;5092378;28;20452;-67
2022/12/26 16:06:49;;;;;;;7.70;6.03;;;;;;;;;;5092619;28;20451;-68
2022/12/26 16:09:24;;;;;;;8.20;6.30;;;;;;;;;;5093316;28;20467;-68
2022/12/26 16:11:54;;;;;;;7.60;6.47;;;;;;;;;;5092741;28;20468;-67
2022/12/26 16:14:26;;;;;;;7.17;6.43;;;;;;;;;;5092293;28;20502;-68
2022/12/26 16:16:53;;;;;;;6.73;4.80;;;;;;;;;;5092317;28;20457;-68
2022/12/26 16:19:21;;;;;;;8.37;5.50;;;;;;;;;;5092690;28;20482;-67
2022/12/26 16:24:37;;;;;;;8.43;6.47;;;;;;;;;;5091989;28;20977;-67
2022/12/26 16:27:06;;;;;;;9.10;6.03;;;;;;;;;;5092355;28;20872;-68
2022/12/26 16:29:33;;;;;;;15.23;7.50;;;;;;;;;;5092468;28;20462;-67
2022/12/26 16:32:05;;;;;;;8.63;6.07;;;;;;;;;;5092058;28;20948;-67
2022/12/26 16:34:33;;;;;;;7.53;6.50;;;;;;;;;;5091967;28;20478;-67
2022/12/26 16:37:02;;;;;;;9.80;7.00;;;;;;;;;;5092266;28;20466;-68
2022/12/26 16:39:29;;;;;;;9.77;6.87;;;;;;;;;;5092446;28;20826;-68
2022/12/26 16:41:58;;;;;;;11.70;6.93;;;;;;;;;;5092219;28;20457;-68
2022/12/26 16:44:28;;;;;;;14.20;9.27;;;;;;;;;;5094669;28;20840;-67
2022/12/26 16:46:55;;;;;;;6.53;5.93;;;;;;;;;;5096077;28;20464;-68
2022/12/26 16:49:23;;;;;;;5.07;4.20;;;;;;;;;;5096161;28;20463;-67
2022/12/26 16:51:51;;;;;;;6.03;4.33;;;;;;;;;;5095785;28;20939;-68
2022/12/26 16:54:28;;;;;;;6.87;4.60;;;;;;;;;;5095330;28;21003;-68
2022/12/26 16:56:59;;;;;;;4.90;3.97;;;;;;;;;;5095881;28;20450;-67
2022/12/26 16:59:27;;;;;;;5.63;3.83;;;;;;;;;;5096268;28;20454;-67
2022/12/26 17:01:55;;;;;;;6.80;4.63;;;;;;;;;;5095898;28;20450;-68
2022/12/26 17:04:24;;;;;;;3.20;2.67;;;;;;;;;;5095447;28;20450;-67
2022/12/26 17:06:53;;;;;;;4.53;2.50;;;;;;;;;;5095681;28;20455;-67
2022/12/26 17:09:22;;;;;;;3.63;2.40;;;;;;;;;;5095748;28;20466;-67
2022/12/26 17:11:52;;;;;;;6.53;3.20;;;;;;;;;;5095814;28;20458;-67